Time;durP1;ratioP1;P1;durP2;ratioP2;P2;SDS_P1;SDS_P2;PMS_P1;PMS_P2;Temp;Humidity;BMP_temperature;BMP_pressure;BME280_temperature;BME280_humidity;BME280_pressure;Samples;Min_cycle;Max_cycle;Signal;HPM_P1;HPM_P2
2022/05/08 00:00:13;;;;;;;18.90;7.82;;;;;;;12.06;100.00;102247.94;4998225;28;20371;-78
2022/05/08 00:02:40;;;;;;;10.95;6.88;;;;;;;11.95;100.00;102249.50;4991423;28;20035;-78
2022/05/08 00:05:15;;;;;;;18.88;7.60;;;;;;;12.02;100.00;102249.09;5004121;28;20050;-76
2022/05/08 00:07:41;;;;;;;15.48;7.68;;;;;;;12.03;100.00;102238.03;5001263;28;20035;-79
2022/05/08 00:10:16;;;;;;;11.90;7.88;;;;;;;12.01;100.00;102236.38;4996287;28;20034;-77
2022/05/08 00:12:42;;;;;;;19.27;8.25;;;;;;;11.97;100.00;102243.03;4979005;28;20045;-78
2022/05/08 00:15:10;;;;;;;18.02;8.88;;;;;;;11.97;100.00;102237.53;4992697;28;20054;-77
2022/05/08 00:17:37;;;;;;;18.40;8.43;;;;;;;12.02;100.00;102241.78;4992301;28;20038;-78
2022/05/08 00:20:06;;;;;;;16.20;8.52;;;;;;;11.98;100.00;102237.44;4991783;28;20106;-79
2022/05/08 00:22:33;;;;;;;15.35;8.75;;;;;;;12.00;100.00;102246.44;4996257;28;20385;-79
2022/05/08 00:25:02;;;;;;;19.50;9.52;;;;;;;11.91;100.00;102238.78;4977952;28;20034;-78
2022/05/08 00:27:29;;;;;;;17.60;8.98;;;;;;;11.90;100.00;102243.41;4977763;28;20073;-78
2022/05/08 00:29:56;;;;;;;17.92;9.75;;;;;;;11.94;100.00;102238.63;4978615;28;20037;-77
2022/05/08 00:32:22;;;;;;;23.40;9.65;;;;;;;11.92;100.00;102246.06;4996411;28;20038;-78
2022/05/08 00:34:48;;;;;;;24.73;10.13;;;;;;;11.84;100.00;102246.53;4990068;28;20041;-78
2022/05/08 00:37:17;;;;;;;18.38;9.93;;;;;;;11.87;100.00;102251.81;4996082;28;20038;-78
2022/05/08 00:39:43;;;;;;;20.95;10.60;;;;;;;11.84;100.00;102246.53;4995699;28;20030;-78
2022/05/08 00:42:09;;;;;;;23.83;11.43;;;;;;;11.85;100.00;102248.25;5010200;28;20045;-77
2022/05/08 00:44:36;;;;;;;21.15;11.18;;;;;;;11.83;100.00;102252.97;4967230;28;20490;-78
2022/05/08 00:47:03;;;;;;;25.40;11.93;;;;;;;11.78;100.00;102249.63;4999029;28;20030;-78
2022/05/08 00:49:28;;;;;;;20.23;11.50;;;;;;;11.71;100.00;102259.25;4997146;28;20383;-78
2022/05/08 00:51:54;;;;;;;23.90;12.05;;;;;;;11.69;100.00;102258.41;4994687;28;20386;-78
2022/05/08 00:54:27;;;;;;;23.52;12.23;;;;;;;11.72;100.00;102258.25;4975062;28;20035;-77
2022/05/08 00:56:54;;;;;;;21.42;11.40;;;;;;;11.80;100.00;102258.66;4996295;28;20478;-77
2022/05/08 00:59:28;;;;;;;24.88;12.20;;;;;;;11.82;100.00;102253.06;4992343;28;20395;-77
2022/05/08 01:01:54;;;;;;;22.73;12.18;;;;;;;11.84;100.00;102252.00;4990599;28;20398;-76
2022/05/08 01:04:22;;;;;;;26.95;13.10;;;;;;;11.81;100.00;102252.19;4980887;28;20049;-77
2022/05/08 01:06:55;;;;;;;22.90;11.95;;;;;;;11.88;100.00;102255.44;4979403;28;20073;-77
2022/05/08 01:09:21;;;;;;;26.45;13.20;;;;;;;11.77;100.00;102250.59;4978542;28;20039;-77
2022/05/08 01:11:49;;;;;;;22.90;13.60;;;;;;;11.71;100.00;102251.00;4996551;28;20038;-77
2022/05/08 01:14:18;;;;;;;33.20;13.82;;;;;;;11.75;100.00;102250.69;4994839;28;20038;-77
2022/05/08 01:16:45;;;;;;;36.67;13.65;;;;;;;11.63;100.00;102254.22;4969119;28;20096;-77
2022/05/08 01:19:11;;;;;;;24.98;14.82;;;;;;;11.65;100.00;102257.72;4976142;28;20165;-78
2022/05/08 01:21:44;;;;;;;29.42;14.23;;;;;;;11.74;100.00;102256.28;4993687;28;20041;-78
2022/05/08 01:24:22;;;;;;;27.83;14.30;;;;;;;11.64;100.00;102255.09;4994510;28;20134;-77
2022/05/08 01:26:47;;;;;;;30.55;14.55;;;;;;;11.62;100.00;102254.31;4977168;28;20491;-77
2022/05/08 01:29:13;;;;;;;26.65;14.52;;;;;;;11.63;100.00;102256.09;4977696;28;20037;-77
2022/05/08 01:31:39;;;;;;;24.88;14.45;;;;;;;11.54;100.00;102258.41;4993042;28;20034;-77
2022/05/08 01:34:07;;;;;;;26.25;14.70;;;;;;;11.53;100.00;102259.38;5009787;28;20034;-76
2022/05/08 01:36:33;;;;;;;29.65;15.27;;;;;;;11.57;100.00;102265.56;4987466;28;20049;-77
2022/05/08 01:38:58;;;;;;;33.20;16.48;;;;;;;11.57;100.00;102262.81;4995506;28;20564;-77
2022/05/08 01:41:24;;;;;;;27.30;15.93;;;;;;;11.54;100.00;102273.97;4972846;28;20041;-78
2022/05/08 01:44:00;;;;;;;25.98;16.05;;;;;;;11.54;100.00;102279.44;4961909;28;20035;-76
2022/05/08 01:46:25;;;;;;;32.83;16.98;;;;;;;11.50;100.00;102275.13;5007528;28;20574;-77
2022/05/08 01:48:51;;;;;;;28.75;15.40;;;;;;;11.47;100.00;102275.31;4980922;28;20066;-77
2022/05/08 01:51:17;;;;;;;28.27;15.75;;;;;;;11.41;100.00;102271.06;4937966;28;20044;-77
2022/05/08 01:53:52;;;;;;;31.98;16.67;;;;;;;11.38;100.00;102271.28;4993939;28;20042;-77
2022/05/08 01:56:20;;;;;;;31.02;16.20;;;;;;;11.44;100.00;102281.84;4993619;28;20057;-77
2022/05/08 01:58:49;;;;;;;28.42;15.15;;;;;;;11.40;100.00;102289.41;5010091;28;20113;-77
2022/05/08 02:01:17;;;;;;;32.45;16.17;;;;;;;11.31;100.00;102281.69;4992356;28;20034;-77
2022/05/08 02:03:48;;;;;;;31.55;15.77;;;;;;;11.34;100.00;102287.00;4976922;28;20129;-78
2022/05/08 02:06:18;;;;;;;24.75;15.23;;;;;;;11.33;100.00;102288.00;5000647;28;20374;-78
2022/05/08 02:08:44;;;;;;;28.73;15.20;;;;;;;11.27;100.00;102287.47;5008984;28;20030;-76
2022/05/08 02:11:20;;;;;;;31.20;16.95;;;;;;;11.26;100.00;102291.19;4976923;28;20034;-78
2022/05/08 02:13:46;;;;;;;36.15;16.38;;;;;;;11.24;100.00;102291.28;4979465;28;20513;-78
2022/05/08 02:16:12;;;;;;;25.90;14.68;;;;;;;11.27;100.00;102287.47;4976821;28;20058;-78
2022/05/08 02:18:38;;;;;;;29.33;14.68;;;;;;;11.33;100.00;102293.47;4978696;28;20058;-78
2022/05/08 02:21:04;;;;;;;28.52;15.93;;;;;;;11.17;100.00;102298.97;4992829;28;20034;-78
2022/05/08 02:23:30;;;;;;;23.77;13.60;;;;;;;11.16;100.00;102291.72;4994615;28;20053;-77
2022/05/08 02:26:01;;;;;;;23.75;15.40;;;;;;;11.21;100.00;102302.41;4972440;28;20129;-77
2022/05/08 02:28:36;;;;;;;21.65;14.02;;;;;;;11.02;100.00;102298.00;4989090;28;20093;-77
2022/05/08 02:31:11;;;;;;;23.88;13.55;;;;;;;11.15;100.00;102308.25;4992711;28;20042;-78
2022/05/08 02:33:47;;;;;;;26.73;13.65;;;;;;;11.04;100.00;102304.28;4980242;28;20037;-78
2022/05/08 02:36:14;;;;;;;24.70;13.60;;;;;;;10.99;100.00;102300.94;4959080;28;20034;-77
2022/05/08 02:38:39;;;;;;;31.35;13.93;;;;;;;11.04;100.00;102297.94;4991726;28;20101;-78
2022/05/08 02:41:06;;;;;;;22.23;12.90;;;;;;;10.95;100.00;102301.19;4950792;28;20041;-77
2022/05/08 02:43:35;;;;;;;22.70;12.70;;;;;;;10.92;100.00;102304.09;4972529;28;20030;-78
2022/05/08 02:46:02;;;;;;;26.00;12.75;;;;;;;10.92;100.00;102309.59;4977820;28;20042;-77
2022/05/08 02:48:27;;;;;;;27.60;12.77;;;;;;;10.90;100.00;102309.66;4994395;28;20030;-79
2022/05/08 02:50:55;;;;;;;25.48;12.77;;;;;;;10.94;100.00;102304.91;4992231;28;20505;-78
2022/05/08 02:53:24;;;;;;;25.38;12.00;;;;;;;10.84;100.00;102302.69;4991794;28;20050;-77
2022/05/08 02:58:35;;;;;;;26.55;11.88;;;;;;;10.88;100.00;102305.25;4994925;28;20061;-79
2022/05/08 03:01:05;;;;;;;22.20;11.70;;;;;;;10.89;100.00;102304.28;4991110;28;20117;-78
2022/05/08 03:03:33;;;;;;;23.55;11.65;;;;;;;10.84;100.00;102304.56;4995356;28;20030;-78
2022/05/08 03:05:59;;;;;;;22.77;12.20;;;;;;;10.84;100.00;102297.22;4992230;28;20077;-77
2022/05/08 03:08:26;;;;;;;20.58;11.40;;;;;;;10.70;100.00;102296.22;4993598;28;20087;-77
2022/05/08 03:13:41;;;;;;;24.30;11.25;;;;;;;10.60;100.00;102301.34;4991354;28;20494;-78
2022/05/08 03:16:09;;;;;;;19.92;10.98;;;;;;;10.61;100.00;102298.53;4980082;28;20027;-77
2022/05/08 03:18:40;;;;;;;25.75;12.20;;;;;;;10.60;100.00;102295.88;5009433;28;20038;-77
2022/05/08 03:21:09;;;;;;;29.35;11.35;;;;;;;10.66;100.00;102292.78;4957182;28;20050;-78
2022/05/08 03:23:35;;;;;;;25.33;13.23;;;;;;;10.52;100.00;102295.41;4960524;28;20591;-77
2022/05/08 03:26:07;;;;;;;21.00;12.30;;;;;;;10.55;100.00;102297.97;4992273;28;20033;-77
2022/05/08 03:28:40;;;;;;;20.77;11.48;;;;;;;10.52;100.00;102301.75;4970095;28;20477;-77
2022/05/08 03:31:08;;;;;;;25.52;11.57;;;;;;;10.58;100.00;102300.56;4980082;28;20035;-77
2022/05/08 03:33:34;;;;;;;25.80;12.68;;;;;;;10.47;100.00;102307.50;4975379;28;20057;-78
2022/05/08 03:36:06;;;;;;;20.65;11.70;;;;;;;10.48;100.00;102298.31;4988026;28;20046;-76
2022/05/08 03:38:45;;;;;;;29.83;11.93;;;;;;;10.53;100.00;102299.94;4994969;28;20397;-78
2022/05/08 03:41:15;;;;;;;27.48;12.60;;;;;;;10.52;100.00;102309.09;4994938;28;20030;-79
2022/05/08 03:43:42;;;;;;;23.45;11.77;;;;;;;10.43;100.00;102302.28;4977597;28;20108;-77
2022/05/08 03:46:08;;;;;;;27.27;12.60;;;;;;;10.42;100.00;102304.13;4990814;28;20030;-77
2022/05/08 03:48:35;;;;;;;26.92;13.60;;;;;;;10.42;100.00;102303.25;4988341;28;20152;-76
2022/05/08 03:51:01;;;;;;;24.02;12.25;;;;;;;10.48;100.00;102316.63;4988041;28;20034;-76
2022/05/08 03:53:37;;;;;;;22.63;12.55;;;;;;;10.41;100.00;102312.44;5000660;28;20045;-78
2022/05/08 03:56:08;;;;;;;28.88;13.05;;;;;;;10.30;100.00;102305.66;4985441;28;20081;-78
2022/05/08 03:58:34;;;;;;;26.25;12.98;;;;;;;10.32;100.00;102304.69;5001262;28;20034;-78
2022/05/08 04:01:09;;;;;;;29.35;13.43;;;;;;;10.23;100.00;102325.22;4987536;28;20037;-78
2022/05/08 04:03:45;;;;;;;31.55;13.32;;;;;;;10.10;100.00;102314.06;4974882;28;20027;-77
2022/05/08 04:06:13;;;;;;;33.28;12.73;;;;;;;10.11;100.00;102313.97;4992182;28;20441;-78
2022/05/08 04:08:39;;;;;;;37.40;13.13;;;;;;;10.11;100.00;102316.72;4993012;28;20038;-77
2022/05/08 04:11:07;;;;;;;27.67;12.90;;;;;;;10.00;100.00;102319.16;4992159;28;20088;-76
2022/05/08 04:13:33;;;;;;;26.17;11.90;;;;;;;9.97;100.00;102316.59;4991328;28;20408;-77
2022/05/08 04:16:16;;;;;;;26.45;11.93;;;;;;;10.06;100.00;102323.41;4969536;28;20026;-76
2022/05/08 04:18:45;;;;;;;34.70;11.98;;;;;;;9.88;100.00;102312.47;4996650;28;20065;-76
2022/05/08 04:21:11;;;;;;;23.85;11.40;;;;;;;9.94;100.00;102325.81;4992417;28;20047;-79
2022/05/08 04:26:26;;;;;;;27.45;11.38;;;;;;;9.76;100.00;102324.06;4982713;28;20514;-77
2022/05/08 04:28:53;;;;;;;24.55;10.48;;;;;;;9.83;100.00;102322.75;4991796;28;20053;-78
2022/05/08 04:31:22;;;;;;;27.25;11.65;;;;;;;9.78;100.00;102324.00;4979572;28;20042;-78
2022/05/08 04:33:48;;;;;;;27.27;11.35;;;;;;;9.73;100.00;102332.44;4980498;28;20043;-78
2022/05/08 04:36:15;;;;;;;26.75;10.63;;;;;;;9.74;100.00;102340.56;4995948;28;20133;-77
2022/05/08 04:38:40;;;;;;;27.08;11.65;;;;;;;9.79;100.00;102344.88;4996047;28;20393;-76
2022/05/08 04:41:07;;;;;;;32.60;11.27;;;;;;;9.81;100.00;102342.97;4979010;28;20035;-76
2022/05/08 04:43:43;;;;;;;40.90;11.50;;;;;;;9.78;100.00;102338.53;4992454;28;20061;-78
2022/05/08 04:46:17;;;;;;;36.70;10.30;;;;;;;9.88;100.00;102349.88;4978628;28;20049;-78
2022/05/08 04:48:53;;;;;;;29.60;10.63;;;;;;;9.97;100.00;102352.16;4989034;28;20041;-78
2022/05/08 04:51:28;;;;;;;22.10;8.98;;;;;;;10.22;100.00;102351.72;4975973;28;20039;-78
2022/05/08 04:53:57;;;;;;;34.67;10.30;;;;;;;10.22;100.00;102353.59;5009536;28;20042;-76
2022/05/08 04:56:24;;;;;;;35.60;10.60;;;;;;;10.25;100.00;102350.69;4995805;28;20042;-77
2022/05/08 04:58:59;;;;;;;40.08;10.15;;;;;;;10.22;100.00;102362.69;4996164;28;20042;-77
2022/05/08 05:01:25;;;;;;;42.75;9.80;;;;;;;10.30;100.00;102365.88;4995415;28;20042;-77
2022/05/08 05:03:52;;;;;;;37.65;10.65;;;;;;;10.22;100.00;102359.94;4991344;28;20072;-78
2022/05/08 05:06:18;;;;;;;25.85;9.68;;;;;;;10.32;100.00;102367.66;4992102;28;20030;-78
2022/05/08 05:08:49;;;;;;;29.10;9.35;;;;;;;10.38;100.00;102371.00;4979136;28;20038;-77
2022/05/08 05:11:25;;;;;;;25.30;8.15;;;;;;;10.20;100.00;102377.41;4980490;28;20504;-78
2022/05/08 05:13:56;;;;;;;28.98;7.75;;;;;;;10.43;100.00;102377.09;4992572;28;20463;-78
2022/05/08 05:16:22;;;;;;;32.53;8.75;;;;;;;10.40;100.00;102385.47;5012266;28;20402;-78
2022/05/08 05:18:49;;;;;;;28.98;7.93;;;;;;;10.35;100.00;102381.22;4956198;28;20035;-80
2022/05/08 05:21:18;;;;;;;29.83;7.57;;;;;;;10.50;100.00;102385.88;5000156;28;20056;-78
2022/05/08 05:23:44;;;;;;;26.02;7.05;;;;;;;10.70;100.00;102386.63;4998630;28;20113;-79
2022/05/08 05:26:13;;;;;;;34.28;7.78;;;;;;;10.76;100.00;102384.44;4985710;28;20441;-79
2022/05/08 05:28:38;;;;;;;23.75;7.30;;;;;;;10.89;100.00;102394.69;4957264;28;20046;-78
2022/05/08 05:31:06;;;;;;;31.05;7.85;;;;;;;10.68;100.00;102386.72;4990850;28;20025;-78
2022/05/08 05:33:32;;;;;;;30.80;7.65;;;;;;;10.77;100.00;102390.78;4970181;28;20446;-77
2022/05/08 05:35:58;;;;;;;30.65;7.00;;;;;;;10.92;100.00;102398.19;4998182;28;20046;-78
2022/05/08 05:38:23;;;;;;;29.13;8.02;;;;;;;10.92;100.00;102391.78;4949188;28;20049;-78
2022/05/08 05:40:51;;;;;;;25.60;8.13;;;;;;;10.78;100.00;102396.19;4971468;28;20031;-78
2022/05/08 05:43:17;;;;;;;31.15;8.20;;;;;;;11.13;100.00;102409.78;4983801;28;20041;-78
2022/05/08 05:45:42;;;;;;;30.98;7.35;;;;;;;11.01;100.00;102418.69;4993836;28;20038;-79
2022/05/08 05:48:09;;;;;;;25.98;6.80;;;;;;;11.18;100.00;102410.41;4994393;28;20057;-78
2022/05/08 05:50:35;;;;;;;24.75;6.65;;;;;;;11.30;100.00;102411.56;4969732;28;20038;-78
2022/05/08 05:53:02;;;;;;;27.15;6.47;;;;;;;11.19;100.00;102423.13;4996252;28;20050;-78
2022/05/08 05:55:29;;;;;;;24.50;6.70;;;;;;;11.26;100.00;102417.31;4992155;28;20037;-78
2022/05/08 05:57:54;;;;;;;22.83;6.15;;;;;;;11.71;100.00;102426.63;4998545;28;20050;-78
2022/05/08 06:00:23;;;;;;;26.33;7.13;;;;;;;11.28;100.00;102420.84;4981004;28;20030;-78
2022/05/08 06:02:48;;;;;;;25.42;7.22;;;;;;;11.64;100.00;102425.19;4950275;28;20039;-79
2022/05/08 06:05:14;;;;;;;30.00;7.97;;;;;;;11.79;100.00;102424.31;4981508;28;20037;-78
2022/05/08 06:07:42;;;;;;;29.20;7.28;;;;;;;11.99;100.00;102425.00;4997482;28;20498;-78
2022/05/08 06:10:09;;;;;;;29.27;8.43;;;;;;;11.98;100.00;102435.09;4996771;28;20057;-78
2022/05/08 06:12:35;;;;;;;25.75;7.85;;;;;;;11.94;100.00;102428.91;4977976;28;20034;-78
2022/05/08 06:15:03;;;;;;;23.80;7.45;;;;;;;11.98;100.00;102434.22;4942155;28;20037;-77
2022/05/08 06:17:29;;;;;;;31.17;7.18;;;;;;;12.36;100.00;102440.13;4976016;28;20038;-78
2022/05/08 06:20:05;;;;;;;25.30;7.35;;;;;;;12.04;100.00;102428.38;4946110;28;20128;-79
2022/05/08 06:22:33;;;;;;;33.05;8.07;;;;;;;12.59;100.00;102446.06;4969272;28;20096;-81
2022/05/08 06:25:09;;;;;;;23.27;7.05;;;;;;;12.85;100.00;102442.59;4990454;28;20026;-78
2022/05/08 06:27:34;;;;;;;32.33;6.72;;;;;;;12.94;100.00;102445.72;4987395;28;20107;-78
2022/05/08 06:30:01;;;;;;;26.02;6.82;;;;;;;13.11;100.00;102442.75;4965700;28;20042;-79
2022/05/08 06:32:34;;;;;;;30.60;6.82;;;;;;;12.98;100.00;102436.28;4989240;28;20122;-78
2022/05/08 06:35:05;;;;;;;;;;;;;;;13.36;100.00;102444.84;4991281;28;20034;-79
2022/05/08 06:37:34;;;;;;;26.85;6.20;;;;;;;13.10;100.00;102448.34;4974218;28;19918;-78
2022/05/08 06:40:03;;;;;;;21.50;5.47;;;;;;;13.15;100.00;102446.19;4973387;28;20033;-78
2022/05/08 06:42:38;;;;;;;33.65;7.35;;;;;;;13.71;100.00;102435.25;4989621;28;20474;-78
2022/05/08 06:45:09;;;;;;;25.80;6.07;;;;;;;13.95;100.00;102446.44;4977478;28;20131;-78
2022/05/08 06:47:41;;;;;;;21.90;5.63;;;;;;;14.11;100.00;102454.56;4994221;28;20573;-79
2022/05/08 06:50:08;;;;;;;22.23;5.78;;;;;;;14.18;100.00;102453.13;4955470;28;20038;-78
2022/05/08 06:52:34;;;;;;;23.83;5.50;;;;;;;14.22;100.00;102451.06;4946453;28;20042;-79
2022/05/08 06:55:00;;;;;;;22.80;5.13;;;;;;;13.95;100.00;102457.47;4985873;28;20149;-77
2022/05/08 06:57:27;;;;;;;24.08;5.28;;;;;;;15.03;100.00;102459.13;4970685;28;20482;-78
2022/05/08 07:02:42;;;;;;;28.70;5.63;;;;;;;14.75;100.00;102462.97;4994407;28;20046;-77
2022/05/08 07:05:17;;;;;;;27.05;5.38;;;;;;;13.88;100.00;102465.25;4984878;28;20041;-76
2022/05/08 07:07:52;;;;;;;22.42;5.35;;;;;;;13.99;100.00;102459.03;4981491;28;20034;-77
2022/05/08 07:10:18;;;;;;;23.13;5.15;;;;;;;14.25;100.00;102467.38;4978903;28;20150;-77
2022/05/08 07:12:45;;;;;;;26.67;5.38;;;;;;;14.95;100.00;102467.06;4969804;28;20061;-75
2022/05/08 07:15:20;;;;;;;25.42;4.90;;;;;;;15.61;100.00;102459.47;4998953;28;20035;-76
2022/05/08 07:17:52;;;;;;;18.92;5.72;;;;;;;15.78;100.00;102465.66;4986844;28;20435;-78
2022/05/08 07:20:35;;;;;;;22.63;5.32;;;;;;;16.19;100.00;102467.13;4985638;28;20054;-78
2022/05/08 07:23:11;;;;;;;21.77;5.20;;;;;;;16.04;100.00;102466.41;4992817;28;20042;-78
2022/05/08 07:25:38;;;;;;;21.77;4.72;;;;;;;16.56;100.00;102471.66;4991642;28;20037;-78
2022/05/08 07:28:14;;;;;;;20.50;4.70;;;;;;;15.93;100.00;102475.53;4992585;28;20034;-78
2022/05/08 07:30:43;;;;;;;21.73;5.10;;;;;;;15.64;100.00;102480.44;4965529;28;20053;-78
2022/05/08 07:33:19;;;;;;;28.27;5.55;;;;;;;15.83;100.00;102468.94;4991134;28;20062;-78
2022/05/08 07:38:31;;;;;;;23.38;4.97;;;;;;;15.30;100.00;102476.53;4993563;28;20109;-77
2022/05/08 07:41:08;;;;;;;22.67;5.00;;;;;;;15.25;100.00;102480.53;4976845;28;20043;-78
2022/05/08 07:43:34;;;;;;;24.80;5.53;;;;;;;14.98;100.00;102479.75;4987725;28;20030;-78
2022/05/08 07:46:00;;;;;;;28.40;5.47;;;;;;;15.07;100.00;102479.97;4971509;28;20042;-77
2022/05/08 07:48:26;;;;;;;25.30;5.15;;;;;;;15.15;100.00;102484.97;4975086;28;20512;-78
2022/05/08 07:50:52;;;;;;;25.75;4.20;;;;;;;14.64;100.00;102484.91;4996361;28;20050;-78
2022/05/08 07:53:19;;;;;;;30.63;5.95;;;;;;;14.80;100.00;102485.59;4965045;28;20076;-78
2022/05/08 07:55:51;;;;;;;28.98;5.25;;;;;;;14.37;100.00;102491.34;4988021;28;20069;-79
2022/05/08 07:58:18;;;;;;;29.58;5.00;;;;;;;14.61;100.00;102488.78;4959595;28;20390;-79
2022/05/08 08:00:44;;;;;;;24.50;4.72;;;;;;;14.58;100.00;102483.44;4974789;28;20042;-80
2022/05/08 08:03:13;;;;;;;25.08;4.93;;;;;;;14.87;100.00;102488.78;4982362;28;20027;-78
2022/05/08 08:05:39;;;;;;;26.50;5.43;;;;;;;14.34;100.00;102494.28;4990601;28;20098;-79
2022/05/08 08:08:06;;;;;;;25.00;4.72;;;;;;;14.77;100.00;102494.06;5003410;28;20461;-78
2022/05/08 08:10:32;;;;;;;29.70;5.10;;;;;;;14.52;100.00;102492.13;5002420;28;20047;-78
2022/05/08 08:13:02;;;;;;;20.98;4.85;;;;;;;14.53;100.00;102489.28;4998444;28;20038;-76
2022/05/08 08:15:28;;;;;;;31.92;5.10;;;;;;;14.40;100.00;102498.53;4997674;28;20039;-78
2022/05/08 08:17:53;;;;;;;24.08;4.60;;;;;;;14.57;100.00;102495.44;4971690;28;20065;-78
2022/05/08 08:20:19;;;;;;;19.90;3.95;;;;;;;14.92;100.00;102500.41;4993764;28;20101;-79
2022/05/08 08:22:45;;;;;;;19.70;4.25;;;;;;;15.15;100.00;102498.75;4958830;28;20450;-78
2022/05/08 08:25:11;;;;;;;20.33;4.30;;;;;;;15.25;100.00;102502.59;4959750;28;20027;-78
2022/05/08 08:27:36;;;;;;;29.70;4.85;;;;;;;15.46;97.31;102498.38;4995298;28;20064;-79
2022/05/08 08:30:04;;;;;;;24.13;5.00;;;;;;;15.03;100.00;102496.88;4994554;28;20117;-77
2022/05/08 08:32:33;;;;;;;21.45;4.35;;;;;;;15.38;100.00;102496.16;5011743;28;20528;-78
2022/05/08 08:35:08;;;;;;;22.05;5.63;;;;;;;15.04;100.00;102495.88;5011179;28;20030;-78
2022/05/08 08:37:34;;;;;;;26.40;6.18;;;;;;;14.92;100.00;102499.50;4972537;28;20035;-78
2022/05/08 08:39:59;;;;;;;31.33;5.53;;;;;;;15.12;100.00;102498.06;4997199;28;20125;-77
2022/05/08 08:42:31;;;;;;;41.65;6.75;;;;;;;14.80;100.00;102495.75;4996978;28;20031;-77
2022/05/08 08:47:58;;;;;;;27.48;5.60;;;;;;;15.12;100.00;102504.50;5007210;28;20069;-76
2022/05/08 08:50:33;;;;;;;26.45;5.03;;;;;;;15.13;100.00;102502.59;5011074;28;20034;-78
2022/05/08 08:53:19;;;;;;;24.08;4.72;;;;;;;15.35;100.00;102502.81;4989236;28;20057;-76
2022/05/08 08:55:49;;;;;;;26.05;5.53;;;;;;;15.37;100.00;102495.28;4981559;28;20030;-77
2022/05/08 08:58:20;;;;;;;19.65;4.57;;;;;;;15.38;100.00;102498.94;4989935;28;20030;-77
2022/05/08 09:00:48;;;;;;;23.35;4.15;;;;;;;15.45;100.00;102505.78;4980142;28;20045;-78
2022/05/08 09:03:25;;;;;;;23.75;4.70;;;;;;;15.44;100.00;102502.13;5010017;28;20421;-78
2022/05/08 09:05:55;;;;;;;28.88;5.88;;;;;;;15.60;100.00;102501.00;4994652;28;20121;-77
2022/05/08 09:08:31;;;;;;;23.90;5.03;;;;;;;15.86;99.89;102507.38;4992591;28;20038;-77
2022/05/08 09:10:58;;;;;;;21.15;4.05;;;;;;;15.71;95.18;102505.72;4993975;28;20117;-77
2022/05/08 09:13:28;;;;;;;27.73;5.03;;;;;;;15.41;100.00;102515.28;4987381;28;20399;-77
2022/05/08 09:16:06;;;;;;;28.58;4.65;;;;;;;15.33;96.99;102514.94;4973353;28;20126;-78
2022/05/08 09:18:45;;;;;;;14.35;3.85;;;;;;;15.73;98.14;102509.25;4992331;28;20036;-78
2022/05/08 09:24:13;;;;;;;25.08;4.82;;;;;;;15.76;94.41;102509.06;4995550;28;20038;-77
2022/05/08 09:26:40;;;;;;;22.42;3.95;;;;;;;15.75;89.91;102505.38;4978270;28;20506;-77
2022/05/08 09:29:07;;;;;;;22.23;4.70;;;;;;;16.21;92.32;102512.09;4993700;28;20133;-77
2022/05/08 09:31:43;;;;;;;19.50;4.30;;;;;;;16.75;85.90;102504.28;4978046;28;20121;-77
2022/05/08 09:34:09;;;;;;;26.48;4.43;;;;;;;17.82;81.27;102508.53;4981287;28;20505;-78
2022/05/08 09:36:35;;;;;;;18.25;3.97;;;;;;;17.35;81.69;102502.25;4998289;28;20077;-77
2022/05/08 09:39:05;;;;;;;18.63;3.78;;;;;;;18.26;79.20;102495.59;4992014;28;20093;-77
2022/05/08 09:41:38;;;;;;;19.58;4.28;;;;;;;18.23;75.81;102493.06;4988415;28;20035;-79
2022/05/08 09:44:16;;;;;;;15.52;3.88;;;;;;;18.23;78.42;102498.63;4996029;28;20150;-78
2022/05/08 09:46:52;;;;;;;20.50;4.45;;;;;;;17.82;80.89;102498.34;4980353;28;20514;-77
2022/05/08 09:49:27;;;;;;;19.88;4.15;;;;;;;18.31;78.27;102490.53;4978655;28;20034;-77
2022/05/08 09:52:04;;;;;;;17.83;3.78;;;;;;;18.98;76.67;102491.22;4997488;28;20034;-76
2022/05/08 09:54:30;;;;;;;17.38;4.00;;;;;;;18.58;80.62;102494.72;5010256;28;20030;-80
2022/05/08 09:56:59;;;;;;;25.25;4.72;;;;;;;18.75;75.37;102490.44;4994179;28;20062;-77
2022/05/08 09:59:24;;;;;;;22.25;4.13;;;;;;;18.99;73.56;102480.97;4960912;28;20121;-77
2022/05/08 10:02:03;;;;;;;20.23;4.10;;;;;;;18.39;69.46;102489.88;4980547;28;20038;-77
2022/05/08 10:04:39;;;;;;;19.48;3.85;;;;;;;18.43;77.37;102491.38;4978856;28;20057;-79
2022/05/08 10:07:15;;;;;;;15.32;3.67;;;;;;;19.18;69.21;102483.88;4989502;28;20026;-78
2022/05/08 10:15:20;;;;;;;13.85;2.88;;;;;;;18.88;69.14;102480.06;4980954;28;20055;-78
2022/05/08 10:17:49;;;;;;;18.50;3.80;;;;;;;19.16;69.50;102479.50;4956272;28;20132;-78
2022/05/08 10:20:53;;;;;;;15.75;3.75;;;;;;;19.19;72.73;102480.09;4974203;28;20058;-77
2022/05/08 10:23:41;;;;;;;21.63;3.53;;;;;;;19.53;66.55;102481.69;4993654;28;20033;-78
2022/05/08 10:26:23;;;;;;;18.20;3.30;;;;;;;18.61;69.01;102480.56;4990926;28;20038;-77
2022/05/08 10:29:14;;;;;;;13.70;3.28;;;;;;;19.45;67.50;102486.06;4983091;28;20065;-77
2022/05/08 10:31:48;;;;;;;23.80;3.85;;;;;;;18.83;70.60;102470.34;4984941;28;20033;-79
2022/05/08 10:34:34;;;;;;;19.08;3.63;;;;;;;18.61;73.41;102471.34;4979287;28;20114;-78
2022/05/08 10:37:14;;;;;;;18.58;3.28;;;;;;;18.79;70.83;102469.75;4997762;28;20081;-79
2022/05/08 10:39:46;;;;;;;21.17;3.80;;;;;;;18.54;67.47;102463.59;4999085;28;20061;-78
2022/05/08 10:42:22;;;;;;;14.18;4.03;;;;;;;19.20;64.77;102469.84;4989986;28;20068;-79
2022/05/08 10:44:50;;;;;;;24.02;4.10;;;;;;;19.32;67.16;102465.97;4997277;28;20022;-77
2022/05/08 10:47:32;;;;;;;23.33;4.00;;;;;;;19.29;66.62;102453.22;4983898;28;20510;-77
2022/05/08 10:50:13;;;;;;;17.55;3.58;;;;;;;19.36;69.84;102461.00;4971195;28;20037;-77
2022/05/08 10:52:52;;;;;;;24.95;3.97;;;;;;;18.81;68.43;102452.97;4964798;28;20042;-78
2022/05/08 10:55:28;;;;;;;22.23;3.78;;;;;;;18.91;74.89;102460.34;4991720;28;20030;-78
2022/05/08 10:57:58;;;;;;;12.95;3.65;;;;;;;19.36;69.81;102453.56;4994129;28;20167;-77
2022/05/08 11:00:30;;;;;;;15.05;3.88;;;;;;;19.13;70.69;102450.09;5010302;28;20034;-79
2022/05/08 11:03:03;;;;;;;21.98;4.20;;;;;;;18.68;71.31;102450.41;4987985;28;20026;-79
2022/05/08 11:05:38;;;;;;;18.88;4.03;;;;;;;18.95;71.27;102444.28;4995392;28;20034;-77
2022/05/08 11:08:07;;;;;;;19.27;3.80;;;;;;;19.33;68.65;102448.28;4974967;28;20034;-77
2022/05/08 11:10:36;;;;;;;16.35;4.72;;;;;;;19.94;68.29;102440.88;5006781;28;20449;-78
2022/05/08 11:13:09;;;;;;;17.38;4.00;;;;;;;19.64;70.83;102443.59;4997339;28;20038;-79
2022/05/08 11:15:45;;;;;;;17.00;3.88;;;;;;;19.62;65.99;102444.72;5009474;28;20117;-79
2022/05/08 11:18:19;;;;;;;20.20;4.68;;;;;;;19.17;72.85;102442.34;4995498;28;20033;-79
2022/05/08 11:20:48;;;;;;;19.17;4.10;;;;;;;19.83;68.32;102430.78;4998033;28;20113;-79
2022/05/08 11:23:15;;;;;;;18.10;4.50;;;;;;;19.16;72.55;102433.16;4992346;28;20084;-78
2022/05/08 11:25:45;;;;;;;20.75;4.25;;;;;;;19.98;70.05;102442.34;4990423;28;20429;-76
2022/05/08 11:28:19;;;;;;;16.05;3.88;;;;;;;19.78;66.00;102447.00;4989512;28;20037;-79
2022/05/08 11:30:50;;;;;;;19.30;4.40;;;;;;;19.44;69.53;102438.97;5002082;28;20230;-79
2022/05/08 11:36:04;;;;;;;13.55;3.55;;;;;;;19.25;70.83;102429.56;4995338;28;20047;-80
2022/05/08 11:38:50;;;;;;;15.30;3.22;;;;;;;19.09;68.51;102435.59;4984475;28;20069;-78
2022/05/08 11:41:17;;;;;;;19.55;4.13;;;;;;;18.61;69.46;102429.75;4997984;28;20121;-77
2022/05/08 11:44:04;;;;;;;13.50;4.00;;;;;;;19.00;70.54;102427.22;4994010;28;20081;-77
2022/05/08 11:46:36;;;;;;;11.13;3.65;;;;;;;19.13;73.94;102427.88;4992811;28;20034;-78
2022/05/08 11:49:25;;;;;;;21.33;4.85;;;;;;;18.92;71.54;102423.25;4975385;28;20081;-77